Time;durP1;ratioP1;P1;durP2;ratioP2;P2;SDS_P1;SDS_P2;PMS_P1;PMS_P2;Temp;Humidity;BMP_temperature;BMP_pressure;BME280_temperature;BME280_humidity;BME280_pressure;Samples;Min_cycle;Max_cycle;Signal;HPM_P1;HPM_P2
2021/08/13 00:00:24;;;;;;;7.90;7.17;;;22.80;99.90;;;;;;4996416;28;20588;-57
2021/08/13 00:02:50;;;;;;;9.83;8.80;;;23.00;99.90;;;;;;4996318;28;20200;-57
2021/08/13 00:05:15;;;;;;;8.80;7.50;;;23.10;99.90;;;;;;4996516;28;20169;-58
2021/08/13 00:07:41;;;;;;;9.90;7.73;;;23.20;99.90;;;;;;4996507;28;20172;-57
2021/08/13 00:10:07;;;;;;;9.60;7.43;;;23.10;99.90;;;;;;4996515;28;20173;-58
2021/08/13 00:12:33;;;;;;;7.87;7.07;;;23.10;99.90;;;;;;4995813;28;20203;-58
2021/08/13 00:14:59;;;;;;;8.60;7.57;;;23.10;99.90;;;;;;4995818;28;20392;-58
2021/08/13 00:17:26;;;;;;;9.43;7.90;;;23.10;99.90;;;;;;4996376;28;20447;-58
2021/08/13 00:19:52;;;;;;;11.20;8.20;;;23.00;99.90;;;;;;4996317;28;20439;-56
2021/08/13 00:22:18;;;;;;;17.07;7.97;;;22.90;99.90;;;;;;4996105;28;20434;-58
2021/08/13 00:24:44;;;;;;;10.37;7.90;;;22.70;99.90;;;;;;4996206;28;20400;-58
2021/08/13 00:27:10;;;;;;;9.40;7.73;;;22.60;99.90;;;;;;4996047;28;20212;-58
2021/08/13 00:29:35;;;;;;;8.20;7.23;;;22.50;99.90;;;;;;4995451;28;20492;-58
2021/08/13 00:32:01;;;;;;;10.97;7.23;;;22.50;99.90;;;;;;4995811;28;20188;-58
2021/08/13 00:34:27;;;;;;;8.47;7.60;;;22.60;99.90;;;;;;4995797;28;20164;-58
2021/08/13 00:36:52;;;;;;;7.97;7.17;;;22.60;99.90;;;;;;4996050;28;20284;-58
2021/08/13 00:39:18;;;;;;;9.10;8.20;;;22.70;99.90;;;;;;4995300;28;20169;-57
2021/08/13 00:41:44;;;;;;;11.07;8.47;;;22.80;99.90;;;;;;4994898;28;20216;-58
2021/08/13 00:44:09;;;;;;;9.73;8.37;;;22.90;99.90;;;;;;4995619;28;20251;-58
2021/08/13 00:46:35;;;;;;;8.53;7.73;;;22.90;99.90;;;;;;4995750;28;20235;-58
2021/08/13 00:49:00;;;;;;;10.83;8.40;;;22.90;99.90;;;;;;4995555;28;20211;-58
2021/08/13 00:51:27;;;;;;;8.43;7.60;;;22.90;99.90;;;;;;4996084;28;20199;-58
2021/08/13 00:53:53;;;;;;;8.57;7.77;;;22.90;99.90;;;;;;4978133;28;20519;-58
2021/08/13 00:56:19;;;;;;;8.20;7.40;;;22.90;99.90;;;;;;4995188;28;20466;-58
2021/08/13 00:58:45;;;;;;;9.30;8.00;;;23.00;99.90;;;;;;4995428;28;20415;-56
2021/08/13 01:01:11;;;;;;;8.13;7.40;;;22.90;99.90;;;;;;4995935;28;20474;-58
2021/08/13 01:03:38;;;;;;;9.27;8.37;;;22.70;99.90;;;;;;4995288;28;20196;-58
2021/08/13 01:06:06;;;;;;;9.87;7.00;;;22.60;99.90;;;;;;4995372;28;20556;-58
2021/08/13 01:08:31;;;;;;;9.47;8.07;;;22.60;99.90;;;;;;4993912;28;20424;-58
2021/08/13 01:11:24;;;;;;;9.17;8.27;;;22.70;99.90;;;;;;4995025;28;20486;-58
2021/08/13 01:13:58;;;;;;;8.87;8.07;;;22.70;99.90;;;;;;4994730;28;20164;-56
2021/08/13 01:16:26;;;;;;;9.70;8.40;;;22.70;99.90;;;;;;4994959;28;20394;-58
2021/08/13 01:19:04;;;;;;;8.00;7.30;;;22.70;99.90;;;;;;4994940;28;20408;-58
2021/08/13 01:21:33;;;;;;;7.73;7.00;;;22.70;99.90;;;;;;4994473;28;20431;-58
2021/08/13 01:24:04;;;;;;;10.43;8.67;;;22.70;99.90;;;;;;4994850;28;20419;-58
2021/08/13 01:26:38;;;;;;;9.20;7.70;;;22.60;99.90;;;;;;4994990;28;20444;-58
2021/08/13 01:29:30;;;;;;;9.80;7.80;;;22.50;99.90;;;;;;4994877;28;20426;-58
2021/08/13 01:32:11;;;;;;;10.60;8.50;;;22.50;99.90;;;;;;4995087;28;20420;-58
2021/08/13 01:34:41;;;;;;;8.87;8.00;;;22.50;99.90;;;;;;4994994;28;20873;-57
2021/08/13 01:37:08;;;;;;;7.80;7.10;;;22.40;99.90;;;;;;4994703;28;20384;-55
2021/08/13 01:39:35;;;;;;;9.03;8.17;;;22.40;99.90;;;;;;4994188;28;20816;-58
2021/08/13 01:42:03;;;;;;;8.93;8.13;;;22.40;99.90;;;;;;4994436;28;20554;-58
2021/08/13 01:44:30;;;;;;;8.47;7.67;;;22.40;99.90;;;;;;4994421;28;20412;-57
2021/08/13 01:46:56;;;;;;;10.00;8.40;;;22.40;99.90;;;;;;4994716;28;20466;-57
2021/08/13 01:49:23;;;;;;;9.13;8.33;;;22.40;99.90;;;;;;4994288;28;20408;-54
2021/08/13 01:51:49;;;;;;;9.73;8.70;;;22.50;99.90;;;;;;4994287;28;20426;-55
2021/08/13 01:54:16;;;;;;;9.17;8.27;;;22.40;99.90;;;;;;4994160;28;20840;-58
2021/08/13 01:56:43;;;;;;;10.03;8.97;;;22.30;99.90;;;;;;4994154;28;20439;-57
2021/08/13 01:59:09;;;;;;;11.30;8.63;;;22.10;99.90;;;;;;4994019;28;20945;-58
2021/08/13 02:01:36;;;;;;;9.27;8.30;;;22.00;99.90;;;;;;4994538;28;20466;-58
2021/08/13 02:04:03;;;;;;;8.90;7.63;;;22.00;99.90;;;;;;4994130;28;20431;-58
2021/08/13 02:06:31;;;;;;;9.87;8.87;;;22.00;99.90;;;;;;4994626;28;20443;-58
2021/08/13 02:08:58;;;;;;;9.87;8.53;;;22.00;99.90;;;;;;4993769;28;20782;-58
2021/08/13 02:11:25;;;;;;;8.57;7.67;;;22.10;99.90;;;;;;4994011;28;20424;-58
2021/08/13 02:13:50;;;;;;;9.27;8.37;;;22.10;99.90;;;;;;4993978;28;20781;-58
2021/08/13 02:16:21;;;;;;;8.87;7.97;;;22.00;99.90;;;;;;4993934;28;20415;-58
2021/08/13 02:18:54;;;;;;;9.53;8.67;;;22.00;99.90;;;;;;4993994;28;20164;-58
2021/08/13 02:21:22;;;;;;;9.40;8.50;;;21.80;99.90;;;;;;4998925;28;20927;-58
2021/08/13 02:23:47;;;;;;;9.63;8.47;;;21.90;99.90;;;;;;5013635;28;20776;-58
2021/08/13 02:26:13;;;;;;;9.07;8.17;;;22.20;99.90;;;;;;5013464;28;20439;-57
2021/08/13 02:28:39;;;;;;;8.77;7.87;;;22.30;99.90;;;;;;5013302;28;20565;-58
2021/08/13 02:31:04;;;;;;;10.83;8.63;;;22.30;99.90;;;;;;5013400;28;20251;-57
2021/08/13 02:33:30;;;;;;;9.57;8.60;;;22.30;99.90;;;;;;5012972;28;20246;-57
2021/08/13 02:36:04;;;;;;;9.23;8.20;;;22.30;99.90;;;;;;5013695;28;20168;-58
2021/08/13 02:38:36;;;;;;;8.93;8.03;;;22.30;99.90;;;;;;5003646;28;20172;-58
2021/08/13 02:41:03;;;;;;;9.40;8.50;;;22.20;99.90;;;;;;4993807;28;20853;-58
2021/08/13 02:43:36;;;;;;;8.60;7.90;;;22.20;99.90;;;;;;4993574;28;20422;-57
2021/08/13 02:46:04;;;;;;;8.83;8.03;;;22.30;99.90;;;;;;4992919;28;20530;-58
2021/08/13 02:48:34;;;;;;;9.73;8.77;;;22.30;99.90;;;;;;4993917;28;20408;-58
2021/08/13 02:51:04;;;;;;;9.50;8.60;;;22.20;99.90;;;;;;4993551;28;20388;-57
2021/08/13 02:53:30;;;;;;;9.27;8.17;;;22.20;99.90;;;;;;4993558;28;20435;-58
2021/08/13 02:56:06;;;;;;;9.77;8.67;;;22.20;99.90;;;;;;4993872;28;20430;-57
2021/08/13 02:58:42;;;;;;;9.67;8.67;;;22.20;99.90;;;;;;4993688;28;20507;-58
2021/08/13 03:01:11;;;;;;;9.47;7.77;;;22.30;99.90;;;;;;4995637;28;20801;-58
2021/08/13 03:03:37;;;;;;;9.00;8.10;;;22.30;99.90;;;;;;4993558;28;20396;-57
2021/08/13 03:06:04;;;;;;;8.67;7.90;;;22.50;99.90;;;;;;4993659;28;20941;-58
2021/08/13 03:08:30;;;;;;;10.13;8.97;;;22.50;99.90;;;;;;4992657;28;20231;-58
2021/08/13 03:10:57;;;;;;;9.33;8.30;;;22.30;99.90;;;;;;4993668;28;20495;-58
2021/08/13 03:13:24;;;;;;;9.80;8.13;;;22.30;99.90;;;;;;4993178;28;20183;-57
2021/08/13 03:15:52;;;;;;;10.13;8.67;;;22.30;99.90;;;;;;4993729;28;20404;-58
2021/08/13 03:18:18;;;;;;;7.60;6.90;;;22.30;99.90;;;;;;4993239;28;20782;-58
2021/08/13 03:20:44;;;;;;;11.40;9.03;;;22.40;99.90;;;;;;4993695;28;20404;-58
2021/08/13 03:23:10;;;;;;;8.30;7.50;;;22.60;99.90;;;;;;4993383;28;20432;-57
2021/08/13 03:25:37;;;;;;;9.20;8.30;;;22.50;99.90;;;;;;4993798;28;20901;-57
2021/08/13 03:28:07;;;;;;;8.70;7.90;;;22.60;99.90;;;;;;4993257;28;20822;-58
2021/08/13 03:30:40;;;;;;;9.63;8.50;;;22.70;99.90;;;;;;4993664;28;20414;-57
2021/08/13 03:33:09;;;;;;;9.30;8.10;;;22.60;99.90;;;;;;4993186;28;20428;-58
2021/08/13 03:35:35;;;;;;;9.00;7.80;;;22.50;99.90;;;;;;4993274;28;20498;-58
2021/08/13 03:38:00;;;;;;;8.20;7.50;;;22.50;99.90;;;;;;4993199;28;20502;-58
2021/08/13 03:40:26;;;;;;;8.30;7.60;;;22.60;99.90;;;;;;4993634;28;20227;-53
2021/08/13 03:42:51;;;;;;;9.27;7.60;;;22.60;99.90;;;;;;4992860;28;20231;-58
2021/08/13 03:45:17;;;;;;;8.93;8.03;;;22.70;99.90;;;;;;4979192;28;20657;-58
2021/08/13 03:47:42;;;;;;;9.33;8.53;;;22.80;99.90;;;;;;5000745;28;20205;-58
2021/08/13 03:50:08;;;;;;;9.47;8.50;;;22.80;99.90;;;;;;4995915;28;20693;-58
2021/08/13 03:52:34;;;;;;;9.03;8.13;;;22.80;99.90;;;;;;4996110;28;20239;-58
2021/08/13 03:54:59;;;;;;;8.87;8.00;;;22.70;99.90;;;;;;4996451;28;20219;-58
2021/08/13 03:57:25;;;;;;;8.77;8.00;;;22.70;99.90;;;;;;4996571;28;20716;-57
2021/08/13 03:59:50;;;;;;;9.20;8.40;;;22.70;99.90;;;;;;4996507;28;20591;-58
2021/08/13 04:02:16;;;;;;;8.70;7.90;;;22.70;99.90;;;;;;4996597;28;20689;-58
2021/08/13 04:04:41;;;;;;;9.67;8.70;;;22.80;99.90;;;;;;4995931;28;20195;-57
2021/08/13 04:07:07;;;;;;;9.50;8.50;;;22.90;99.90;;;;;;4996305;28;20236;-58
2021/08/13 04:09:33;;;;;;;8.40;7.40;;;22.80;99.90;;;;;;4996039;28;20173;-58
2021/08/13 04:11:59;;;;;;;9.53;8.53;;;22.80;99.90;;;;;;4996292;28;20223;-58
2021/08/13 04:14:24;;;;;;;9.27;8.47;;;22.90;99.90;;;;;;4996504;28;20255;-58
2021/08/13 04:16:50;;;;;;;10.03;9.13;;;22.90;99.90;;;;;;4978589;28;20454;-57
2021/08/13 04:19:15;;;;;;;8.77;7.87;;;22.90;99.90;;;;;;4995147;28;20226;-57
2021/08/13 04:21:41;;;;;;;9.60;7.87;;;22.80;99.90;;;;;;4996303;28;20197;-57
2021/08/13 04:24:07;;;;;;;8.33;7.63;;;22.90;99.90;;;;;;4995962;28;20546;-58
2021/08/13 04:26:32;;;;;;;9.70;8.60;;;22.90;99.90;;;;;;4995837;28;20196;-58
2021/08/13 04:28:58;;;;;;;10.17;9.17;;;22.90;99.90;;;;;;4995856;28;20184;-58
2021/08/13 04:31:23;;;;;;;10.37;9.17;;;22.90;99.90;;;;;;4996108;28;20192;-58
2021/08/13 04:33:49;;;;;;;10.37;9.37;;;22.90;99.90;;;;;;4995854;28;20546;-57
2021/08/13 04:36:15;;;;;;;10.77;9.67;;;22.80;99.90;;;;;;4996123;28;20180;-58
2021/08/13 04:38:40;;;;;;;10.27;9.27;;;22.60;99.90;;;;;;4995722;28;20231;-58
2021/08/13 04:41:06;;;;;;;8.80;7.93;;;22.70;99.90;;;;;;4995725;28;20180;-58
2021/08/13 04:43:32;;;;;;;10.70;8.43;;;22.70;99.90;;;;;;4995800;28;20219;-58
2021/08/13 04:45:57;;;;;;;9.90;8.10;;;22.70;99.90;;;;;;4994783;28;20278;-58
2021/08/13 04:48:23;;;;;;;9.73;8.40;;;22.80;99.90;;;;;;4995315;28;20179;-58
2021/08/13 04:50:48;;;;;;;10.10;9.10;;;22.70;99.90;;;;;;4995413;28;20183;-58
2021/08/13 04:53:17;;;;;;;10.43;8.13;;;22.70;99.90;;;;;;4995583;28;20638;-53
2021/08/13 04:55:42;;;;;;;9.53;8.53;;;22.70;99.90;;;;;;4995148;28;20183;-53
2021/08/13 04:58:08;;;;;;;10.53;9.00;;;22.60;99.90;;;;;;4994917;28;20805;-58
2021/08/13 05:00:34;;;;;;;9.40;8.50;;;22.70;99.90;;;;;;4995189;28;20173;-57
2021/08/13 05:03:04;;;;;;;9.50;8.60;;;22.70;99.90;;;;;;4997837;28;20195;-54
2021/08/13 05:05:29;;;;;;;10.40;9.40;;;22.80;99.90;;;;;;4995181;28;20236;-58
2021/08/13 05:07:55;;;;;;;8.97;8.07;;;22.80;99.90;;;;;;4996331;28;20495;-56
2021/08/13 05:10:21;;;;;;;16.53;9.37;;;22.90;99.90;;;;;;4995274;28;20227;-57
2021/08/13 05:12:46;;;;;;;9.77;8.80;;;22.90;99.90;;;;;;4995493;28;20243;-56
2021/08/13 05:15:13;;;;;;;11.10;10.00;;;22.90;99.90;;;;;;4977549;28;20172;-55
2021/08/13 05:17:39;;;;;;;10.00;9.00;;;22.80;99.90;;;;;;4994967;28;20169;-58
2021/08/13 05:20:06;;;;;;;9.87;8.87;;;22.60;99.90;;;;;;4994811;28;20420;-58
2021/08/13 05:22:34;;;;;;;10.67;9.47;;;22.60;99.90;;;;;;4994873;28;20486;-56
2021/08/13 05:25:05;;;;;;;11.30;9.30;;;22.60;99.90;;;;;;4995058;28;20408;-57
2021/08/13 05:27:30;;;;;;;9.77;8.87;;;22.60;99.90;;;;;;4994460;28;20462;-58
2021/08/13 05:29:56;;;;;;;9.93;8.57;;;22.60;99.90;;;;;;4994687;28;20412;-58
2021/08/13 05:32:22;;;;;;;10.30;8.93;;;22.60;99.90;;;;;;4994648;28;20211;-58
2021/08/13 05:34:48;;;;;;;12.10;9.23;;;22.70;99.90;;;;;;4994500;28;20176;-57
2021/08/13 05:37:14;;;;;;;10.47;9.37;;;22.90;99.90;;;;;;4994540;28;20408;-56
2021/08/13 05:39:39;;;;;;;10.20;9.20;;;23.00;99.90;;;;;;4994576;28;20412;-58
2021/08/13 05:42:05;;;;;;;10.77;9.77;;;23.10;99.90;;;;;;5031255;23;20227;-57
2021/08/13 05:44:31;;;;;;;9.27;8.47;;;23.30;99.90;;;;;;5033699;28;20164;-57
2021/08/13 05:46:56;;;;;;;9.43;8.53;;;23.30;99.90;;;;;;5032462;28;20270;-58
2021/08/13 05:49:25;;;;;;;11.13;9.47;;;23.40;99.90;;;;;;5016271;28;20252;-57
2021/08/13 05:51:50;;;;;;;10.00;9.10;;;23.40;99.90;;;;;;5033874;28;20588;-57
2021/08/13 05:54:16;;;;;;;11.20;10.10;;;23.50;99.90;;;;;;5033817;28;20406;-58
2021/08/13 05:56:42;;;;;;;10.23;9.10;;;23.70;99.90;;;;;;5034623;28;20203;-58
2021/08/13 05:59:07;;;;;;;10.33;9.30;;;23.70;99.90;;;;;;5034824;28;20233;-56
2021/08/13 06:01:33;;;;;;;9.80;8.80;;;23.80;99.90;;;;;;5033434;28;20171;-55
2021/08/13 06:03:58;;;;;;;10.03;9.07;;;23.90;99.90;;;;;;5033787;28;20686;-53
2021/08/13 06:06:26;;;;;;;9.33;8.53;;;23.90;99.90;;;;;;5033259;28;20191;-55
2021/08/13 06:08:52;;;;;;;10.40;9.50;;;23.90;99.90;;;;;;5033313;28;20206;-56
2021/08/13 06:11:17;;;;;;;11.37;10.17;;;24.00;99.90;;;;;;5033451;28;20434;-53
2021/08/13 06:13:43;;;;;;;9.30;8.33;;;24.00;99.90;;;;;;5033236;28;20175;-55
2021/08/13 06:16:09;;;;;;;10.23;9.23;;;24.10;99.90;;;;;;5032821;28;20676;-56
2021/08/13 06:18:36;;;;;;;10.37;9.17;;;24.20;99.90;;;;;;5033014;28;20198;-55
2021/08/13 06:21:01;;;;;;;11.07;9.90;;;24.20;99.90;;;;;;5033221;28;20783;-54
2021/08/13 06:23:27;;;;;;;10.80;9.70;;;24.30;99.90;;;;;;5033140;28;20433;-55
2021/08/13 06:25:52;;;;;;;10.07;9.07;;;24.40;99.90;;;;;;5033462;28;20599;-52
2021/08/13 06:28:18;;;;;;;10.87;9.90;;;24.50;99.90;;;;;;5033298;28;20179;-58
2021/08/13 06:30:44;;;;;;;9.70;8.77;;;24.80;99.90;;;;;;5033040;28;20167;-58
2021/08/13 06:33:09;;;;;;;10.10;9.10;;;25.10;99.90;;;;;;5032955;28;20241;-58
2021/08/13 06:35:35;;;;;;;10.33;9.17;;;25.30;99.90;;;;;;5033214;28;20167;-56
2021/08/13 06:38:00;;;;;;;11.10;10.10;;;25.50;99.90;;;;;;5032218;28;20533;-58
2021/08/13 06:40:26;;;;;;;10.13;9.23;;;25.60;99.90;;;;;;5032778;28;20164;-54
2021/08/13 06:42:52;;;;;;;9.10;8.30;;;25.70;99.90;;;;;;5032517;28;20233;-58
2021/08/13 06:45:20;;;;;;;10.60;9.70;;;25.60;99.90;;;;;;5031179;28;20229;-58
2021/08/13 06:47:46;;;;;;;10.63;9.53;;;25.60;99.90;;;;;;5032790;28;20450;-58
2021/08/13 06:50:13;;;;;;;9.67;8.63;;;25.50;99.90;;;;;;5032718;28;20770;-58
2021/08/13 06:52:39;;;;;;;10.07;9.03;;;25.60;99.90;;;;;;5032775;28;20237;-58
2021/08/13 06:55:06;;;;;;;10.70;9.60;;;25.70;99.90;;;;;;5032823;28;20406;-57
2021/08/13 06:57:32;;;;;;;10.70;9.60;;;25.80;99.90;;;;;;5032377;28;20406;-58
2021/08/13 07:00:01;;;;;;;10.70;9.40;;;25.80;99.90;;;;;;5032382;28;20922;-58
2021/08/13 07:02:26;;;;;;;10.87;9.80;;;25.80;99.90;;;;;;5031981;28;20457;-58
2021/08/13 07:04:52;;;;;;;9.40;8.40;;;25.90;99.90;;;;;;5032452;28;20415;-58
2021/08/13 07:07:18;;;;;;;9.63;8.73;;;26.00;99.90;;;;;;5032321;28;20187;-58
2021/08/13 07:09:46;;;;;;;10.50;9.60;;;26.10;99.90;;;;;;5032727;28;20172;-57
2021/08/13 07:12:13;;;;;;;9.67;8.70;;;26.20;99.90;;;;;;5033141;28;20195;-57
2021/08/13 07:14:38;;;;;;;9.37;8.57;;;26.30;99.90;;;;;;5033920;28;20467;-58
2021/08/13 07:17:04;;;;;;;9.97;9.07;;;26.50;99.90;;;;;;5031160;28;20857;-58
2021/08/13 07:19:29;;;;;;;10.77;9.80;;;26.40;99.90;;;;;;5033376;28;20245;-58
2021/08/13 07:21:55;;;;;;;9.93;9.03;;;26.50;99.90;;;;;;5036025;28;20330;-60
2021/08/13 07:24:22;;;;;;;11.10;10.10;;;26.70;99.90;;;;;;5036453;28;20174;-58
2021/08/13 07:26:47;;;;;;;10.47;9.07;;;26.50;99.90;;;;;;5036114;28;20361;-58
2021/08/13 07:29:14;;;;;;;9.90;8.93;;;26.30;99.90;;;;;;5036238;28;20497;-59
2021/08/13 07:31:39;;;;;;;9.40;8.50;;;26.20;99.90;;;;;;5035705;28;20187;-58
2021/08/13 07:34:05;;;;;;;8.73;8.00;;;26.50;99.90;;;;;;5035762;28;20891;-58
2021/08/13 07:36:30;;;;;;;10.30;9.20;;;26.70;99.90;;;;;;5036116;28;20294;-59
2021/08/13 07:38:56;;;;;;;9.93;8.93;;;26.80;99.90;;;;;;5036744;28;20632;-58
2021/08/13 07:41:21;;;;;;;8.93;8.07;;;26.70;99.90;;;;;;5034130;28;20182;-59
2021/08/13 07:43:47;;;;;;;9.37;8.47;;;26.80;99.90;;;;;;5018029;28;20194;-58
2021/08/13 07:46:13;;;;;;;11.60;10.20;;;26.90;99.90;;;;;;5035956;28;20195;-59
2021/08/13 07:48:38;;;;;;;12.00;10.80;;;26.80;99.90;;;;;;5035525;28;20254;-58
2021/08/13 07:51:04;;;;;;;12.37;11.07;;;26.60;99.90;;;;;;5035616;28;20258;-58
2021/08/13 07:53:31;;;;;;;11.60;10.40;;;26.50;99.90;;;;;;5035426;28;20219;-59
2021/08/13 07:55:56;;;;;;;12.23;11.10;;;26.50;99.90;;;;;;5035659;28;20472;-58
2021/08/13 07:58:22;;;;;;;13.67;10.63;;;26.40;99.90;;;;;;5034773;28;20171;-58
2021/08/13 08:00:47;;;;;;;12.60;11.30;;;26.50;99.90;;;;;;5035485;28;20230;-59
2021/08/13 08:03:13;;;;;;;12.33;11.23;;;26.70;99.90;;;;;;5035495;28;20191;-58
2021/08/13 08:05:40;;;;;;;14.77;11.30;;;26.70;99.90;;;;;;5035442;28;20222;-58
2021/08/13 08:08:06;;;;;;;12.37;11.07;;;26.80;99.90;;;;;;5035558;28;20552;-59
2021/08/13 08:10:32;;;;;;;15.03;11.27;;;26.70;99.90;;;;;;5035897;28;20875;-58
2021/08/13 08:12:58;;;;;;;12.80;10.97;;;26.70;99.90;;;;;;5034862;28;20433;-59
2021/08/13 08:15:24;;;;;;;12.60;11.30;;;26.60;99.90;;;;;;5035579;28;20410;-58
2021/08/13 08:17:49;;;;;;;12.23;11.00;;;26.50;99.90;;;;;;5034951;28;20520;-58
2021/08/13 08:20:15;;;;;;;11.73;10.63;;;26.50;99.90;;;;;;5034998;28;20636;-59
2021/08/13 08:22:41;;;;;;;16.97;11.50;;;26.70;99.90;;;;;;5034982;28;20202;-59
2021/08/13 08:25:08;;;;;;;13.47;11.57;;;27.00;99.90;;;;;;5035547;28;20609;-59
2021/08/13 08:27:34;;;;;;;12.27;10.97;;;27.20;99.90;;;;;;5035164;28;20211;-59
2021/08/13 08:29:59;;;;;;;13.03;11.80;;;27.30;99.90;;;;;;5035059;28;20505;-59
2021/08/13 08:32:25;;;;;;;11.80;10.70;;;27.10;99.90;;;;;;5034151;28;20198;-59
2021/08/13 08:34:51;;;;;;;11.50;10.33;;;27.10;99.90;;;;;;5018564;28;20236;-58
2021/08/13 08:37:18;;;;;;;13.40;10.90;;;27.20;99.90;;;;;;5035756;28;20171;-59
2021/08/13 08:39:45;;;;;;;14.33;11.60;;;27.30;99.90;;;;;;5036161;28;20175;-60
2021/08/13 08:42:17;;;;;;;13.37;12.00;;;27.50;99.90;;;;;;5034919;28;20473;-57
2021/08/13 08:44:43;;;;;;;15.13;13.57;;;27.50;99.90;;;;;;5017697;28;20453;-57
2021/08/13 08:47:09;;;;;;;13.00;11.70;;;27.50;99.90;;;;;;5033764;28;20485;-58
2021/08/13 08:49:39;;;;;;;12.07;10.97;;;27.50;99.90;;;;;;5034898;28;20258;-58
2021/08/13 08:52:07;;;;;;;11.87;10.67;;;27.80;99.90;;;;;;5034641;28;20426;-58
2021/08/13 08:54:35;;;;;;;11.90;10.70;;;28.10;99.90;;;;;;5034380;28;20425;-58
2021/08/13 08:57:03;;;;;;;11.00;9.60;;;27.90;99.90;;;;;;5034604;28;20406;-57
2021/08/13 08:59:30;;;;;;;13.30;11.60;;;28.00;99.90;;;;;;5034554;28;20417;-53
2021/08/13 09:01:56;;;;;;;11.73;10.53;;;28.20;99.90;;;;;;5034245;28;20422;-58
2021/08/13 09:04:22;;;;;;;9.77;8.57;;;28.20;99.90;;;;;;5034221;28;20891;-58
2021/08/13 09:06:48;;;;;;;10.03;8.97;;;28.20;99.90;;;;;;5034298;28;20457;-58
2021/08/13 09:09:13;;;;;;;11.07;9.40;;;27.90;99.90;;;;;;5036859;28;20175;-59
2021/08/13 09:11:41;;;;;;;11.40;9.50;;;28.10;99.90;;;;;;5034303;28;20198;-59
2021/08/13 09:14:09;;;;;;;9.40;8.60;;;28.30;99.90;;;;;;5033834;28;20172;-59
2021/08/13 09:16:35;;;;;;;11.73;9.83;;;28.20;99.90;;;;;;5033660;28;20429;-58
2021/08/13 09:19:04;;;;;;;10.40;9.50;;;28.10;99.90;;;;;;5034067;28;20417;-59
2021/08/13 09:21:31;;;;;;;10.40;9.33;;;28.20;99.90;;;;;;5033767;28;20406;-59
2021/08/13 09:24:00;;;;;;;12.03;8.83;;;28.30;99.90;;;;;;5033595;28;20536;-59
2021/08/13 09:26:27;;;;;;;9.47;8.57;;;28.40;99.90;;;;;;5033683;28;20446;-59
2021/08/13 09:29:01;;;;;;;13.03;9.33;;;28.70;99.90;;;;;;5033737;28;20777;-59
2021/08/13 09:31:30;;;;;;;9.80;7.60;;;28.80;99.90;;;;;;5032782;28;20776;-61
2021/08/13 09:34:05;;;;;;;11.40;10.00;;;28.80;99.90;;;;;;5033585;28;20456;-59
2021/08/13 09:36:33;;;;;;;9.63;8.63;;;28.60;99.90;;;;;;5033718;28;20404;-59
2021/08/13 09:39:06;;;;;;;10.73;9.73;;;28.70;99.90;;;;;;5033530;28;20451;-59
2021/08/13 09:41:51;;;;;;;10.63;9.53;;;29.10;99.90;;;;;;5034291;28;20869;-57
2021/08/13 09:44:30;;;;;;;9.13;8.20;;;29.20;99.90;;;;;;5033126;28;20778;-57
2021/08/13 09:46:59;;;;;;;9.30;8.23;;;29.30;99.90;;;;;;5033325;28;20453;-57
2021/08/13 09:49:26;;;;;;;12.63;8.87;;;29.40;99.90;;;;;;5033647;28;20759;-57
2021/08/13 09:51:51;;;;;;;12.10;9.03;;;29.40;99.90;;;;;;5033271;28;20923;-57
2021/08/13 09:54:17;;;;;;;9.00;7.93;;;29.40;99.90;;;;;;5033114;28;20405;-57
2021/08/13 09:56:43;;;;;;;10.27;7.87;;;29.50;99.90;;;;;;5033398;28;20546;-57
2021/08/13 09:59:18;;;;;;;10.20;9.20;;;29.60;99.90;;;;;;5033225;28;20163;-56
2021/08/13 10:01:46;;;;;;;10.77;8.67;;;29.90;99.90;;;;;;5033050;28;20198;-57
2021/08/13 10:04:13;;;;;;;9.60;8.70;;;30.30;99.90;;;;;;5033126;28;20406;-56
2021/08/13 10:06:39;;;;;;;11.57;10.37;;;30.30;99.90;;;;;;5032963;28;20456;-58
2021/08/13 10:09:19;;;;;;;9.17;8.27;;;30.10;99.90;;;;;;5032973;28;20406;-58
2021/08/13 10:12:02;;;;;;;13.13;9.53;;;29.90;99.90;;;;;;5033128;28;20441;-57
2021/08/13 10:14:38;;;;;;;11.30;9.00;;;29.90;99.90;;;;;;5032873;28;20446;-58
2021/08/13 10:17:11;;;;;;;11.03;9.83;;;30.00;99.90;;;;;;5012516;28;20931;-58
2021/08/13 10:19:41;;;;;;;10.73;9.57;;;30.10;99.90;;;;;;5013102;28;20900;-58
2021/08/13 10:22:07;;;;;;;10.67;8.90;;;30.30;99.90;;;;;;5013381;28;20482;-58
2021/08/13 10:24:35;;;;;;;9.63;8.70;;;30.50;99.90;;;;;;5030468;28;20988;-58
2021/08/13 10:27:02;;;;;;;10.13;9.17;;;30.70;99.90;;;;;;5032874;28;20468;-59
2021/08/13 10:29:28;;;;;;;10.30;9.40;;;30.70;99.90;;;;;;5033414;28;20456;-56
2021/08/13 10:31:56;;;;;;;10.37;8.43;;;30.50;99.90;;;;;;5032535;28;20422;-57
2021/08/13 10:34:21;;;;;;;9.63;8.57;;;30.60;99.90;;;;;;5030248;28;20167;-60
2021/08/13 10:36:49;;;;;;;9.50;8.47;;;30.70;99.70;;;;;;5031197;28;20425;-59
2021/08/13 10:39:17;;;;;;;12.57;9.00;;;30.80;99.70;;;;;;5031918;28;20183;-59
2021/08/13 10:41:47;;;;;;;9.40;8.47;;;30.80;99.70;;;;;;5032747;28;20433;-58
2021/08/13 10:44:16;;;;;;;10.13;9.17;;;30.90;99.60;;;;;;5033034;28;20406;-59
2021/08/13 10:46:43;;;;;;;11.20;9.30;;;31.10;99.40;;;;;;5031933;28;20438;-59
2021/08/13 10:49:14;;;;;;;10.63;9.40;;;31.20;99.70;;;;;;5032725;28;20441;-59
2021/08/13 10:51:39;;;;;;;10.67;8.97;;;31.10;99.90;;;;;;5032837;28;20431;-57
2021/08/13 10:54:13;;;;;;;10.57;9.57;;;31.40;99.30;;;;;;5032766;28;20398;-58
2021/08/13 10:56:41;;;;;;;10.27;9.07;;;31.10;99.50;;;;;;5037039;28;20163;-57
2021/08/13 10:59:07;;;;;;;9.80;8.80;;;31.70;99.00;;;;;;5036925;28;20410;-58
2021/08/13 11:01:33;;;;;;;10.27;9.33;;;33.20;97.00;;;;;;5029052;28;20413;-57
2021/08/13 11:03:58;;;;;;;11.03;9.60;;;33.50;96.40;;;;;;5036303;28;20953;-59
2021/08/13 11:06:36;;;;;;;12.17;8.43;;;34.70;95.80;;;;;;5037051;28;20191;-59
2021/08/13 11:09:03;;;;;;;9.53;8.53;;;35.60;93.20;;;;;;5037463;28;20254;-59
2021/08/13 11:11:51;;;;;;;12.17;9.37;;;36.30;91.50;;;;;;5037114;28;20460;-59
2021/08/13 11:14:34;;;;;;;10.90;8.40;;;35.50;91.70;;;;;;5053195;28;20917;-59
2021/08/13 11:17:01;;;;;;;9.10;8.23;;;36.00;91.50;;;;;;5041406;28;20397;-59
2021/08/13 11:19:27;;;;;;;9.83;8.37;;;36.70;90.10;;;;;;5035488;28;20428;-59
2021/08/13 11:22:01;;;;;;;8.83;8.03;;;36.30;88.50;;;;;;5036546;28;20426;-60
2021/08/13 11:24:51;;;;;;;9.43;8.53;;;36.30;89.00;;;;;;5018930;28;20263;-59
2021/08/13 11:27:18;;;;;;;9.70;8.10;;;36.90;87.30;;;;;;5036542;28;20465;-60
2021/08/13 11:29:44;;;;;;;9.67;8.50;;;37.10;86.60;;;;;;5036420;28;20417;-59
2021/08/13 11:32:17;;;;;;;9.97;8.97;;;37.80;86.80;;;;;;5034732;28;20429;-60
2021/08/13 11:35:02;;;;;;;9.20;8.33;;;37.80;82.80;;;;;;5035231;28;20179;-59
2021/08/13 11:37:30;;;;;;;8.67;7.63;;;37.30;83.70;;;;;;5017888;28;20439;-58
2021/08/13 11:39:58;;;;;;;9.23;8.33;;;37.90;82.50;;;;;;5035988;28;20402;-60
2021/08/13 11:44:52;;;;;;;9.87;8.87;;;38.40;79.50;;;;;;4994033;28;20463;-57
2021/08/13 11:47:18;;;;;;;9.50;8.60;;;37.80;81.00;;;;;;4996617;28;20482;-58
2021/08/13 11:49:46;;;;;;;10.13;9.23;;;37.70;79.50;;;;;;4996892;28;20191;-59
2021/08/13 11:52:16;;;;;;;9.73;8.83;;;37.80;78.80;;;;;;4996705;28;20400;-60
2021/08/13 11:54:42;;;;;;;9.70;8.70;;;37.20;80.70;;;;;;4996196;28;20420;-58
2021/08/13 11:57:17;;;;;;;8.93;8.07;;;36.50;82.20;;;;;;4996497;28;20483;-59
2021/08/13 11:59:44;;;;;;;8.73;7.93;;;36.80;81.50;;;;;;4976686;28;20312;-58
2021/08/13 12:02:10;;;;;;;9.20;8.40;;;37.00;81.40;;;;;;4977134;28;20441;-57
2021/08/13 12:04:36;;;;;;;8.60;7.90;;;36.90;81.60;;;;;;4978148;28;20464;-58
2021/08/13 12:07:11;;;;;;;8.70;7.90;;;37.50;80.30;;;;;;4988949;28;20444;-58
2021/08/13 12:09:42;;;;;;;8.80;8.00;;;38.00;79.00;;;;;;4993650;28;20157;-58
2021/08/13 12:12:10;;;;;;;11.90;9.50;;;38.40;78.30;;;;;;4995492;28;20764;-58
2021/08/13 12:14:36;;;;;;;8.03;7.33;;;37.50;79.50;;;;;;4993245;28;20515;-58
2021/08/13 12:17:03;;;;;;;9.13;8.23;;;37.50;79.30;;;;;;4996319;28;20437;-57
2021/08/13 12:19:29;;;;;;;7.80;7.00;;;38.10;78.90;;;;;;4978517;28;20424;-57
2021/08/13 12:22:00;;;;;;;8.60;7.77;;;38.30;78.60;;;;;;4996001;28;20411;-58
2021/08/13 12:24:40;;;;;;;11.13;8.63;;;38.50;76.80;;;;;;4995772;28;20200;-59
2021/08/13 12:27:08;;;;;;;8.63;7.83;;;37.20;79.90;;;;;;4993935;28;20991;-59
2021/08/13 12:29:36;;;;;;;8.77;7.97;;;36.40;81.30;;;;;;4994246;28;20424;-60
2021/08/13 12:32:05;;;;;;;8.93;8.13;;;35.60;83.00;;;;;;4994467;28;20400;-59
2021/08/13 12:34:32;;;;;;;8.70;7.90;;;35.90;84.10;;;;;;4994574;28;20463;-61
2021/08/13 12:37:09;;;;;;;9.13;8.23;;;35.80;84.10;;;;;;4994582;28;20462;-61
2021/08/13 12:39:43;;;;;;;9.67;8.67;;;35.90;82.90;;;;;;4994128;28;20927;-61
2021/08/13 12:42:15;;;;;;;13.47;8.50;;;35.50;84.90;;;;;;4995176;28;20438;-58
2021/08/13 12:44:42;;;;;;;10.13;7.80;;;35.70;85.60;;;;;;4993844;28;20460;-58